Time;durP1;ratioP1;P1;durP2;ratioP2;P2;SDS_P1;SDS_P2;PMS_P1;PMS_P2;Temp;Humidity;BMP_temperature;BMP_pressure;BME280_temperature;BME280_humidity;BME280_pressure;Samples;Min_cycle;Max_cycle;Signal;HPM_P1;HPM_P2
2022/05/06 00:01:02;;;;;;;8.27;5.37;;;9.20;99.90;;;;;;5054317;28;20236;-77
2022/05/06 00:03:28;;;;;;;9.00;4.67;;;9.10;99.90;;;;;;5036453;28;20618;-77
2022/05/06 00:05:53;;;;;;;6.07;4.27;;;9.10;99.90;;;;;;5054932;28;20195;-76
2022/05/06 00:08:19;;;;;;;6.93;4.50;;;9.10;99.90;;;;;;5054416;28;20669;-77
2022/05/06 00:10:45;;;;;;;7.50;4.77;;;9.10;99.90;;;;;;5054321;28;20203;-75
2022/05/06 00:13:10;;;;;;;5.33;4.37;;;9.10;99.90;;;;;;5053890;28;20175;-76
2022/05/06 00:15:36;;;;;;;12.40;4.83;;;9.00;99.90;;;;;;5035936;28;20198;-76
2022/05/06 00:18:02;;;;;;;6.03;4.93;;;9.00;99.90;;;;;;5036194;28;20183;-76
2022/05/06 00:20:28;;;;;;;5.77;4.87;;;9.00;99.90;;;;;;5053598;28;20172;-76
2022/05/06 00:22:54;;;;;;;9.57;5.17;;;8.90;99.90;;;;;;5035803;28;20232;-77
2022/05/06 00:25:19;;;;;;;7.33;4.73;;;8.90;99.90;;;;;;5053505;28;20199;-77
2022/05/06 00:27:45;;;;;;;7.80;4.70;;;8.90;99.90;;;;;;5035532;28;20187;-76
2022/05/06 00:30:11;;;;;;;10.27;4.87;;;8.80;99.90;;;;;;5054026;28;20256;-77
2022/05/06 00:32:36;;;;;;;6.73;4.77;;;8.70;99.90;;;;;;5053529;28;20179;-76
2022/05/06 00:35:02;;;;;;;5.73;4.50;;;8.70;99.90;;;;;;5053571;28;20183;-76
2022/05/06 00:37:28;;;;;;;6.20;4.63;;;8.70;99.90;;;;;;5053485;28;20176;-76
2022/05/06 00:39:53;;;;;;;7.17;4.67;;;8.70;99.90;;;;;;5035462;28;20547;-76
2022/05/06 00:42:19;;;;;;;7.97;4.80;;;8.60;99.90;;;;;;5053210;28;20550;-77
2022/05/06 00:44:44;;;;;;;7.77;4.80;;;8.60;99.90;;;;;;5053458;28;20540;-76
2022/05/06 00:47:10;;;;;;;6.40;5.13;;;8.60;99.90;;;;;;5053382;28;20428;-76
2022/05/06 00:49:37;;;;;;;5.50;4.53;;;8.60;99.90;;;;;;5035357;28;20179;-76
2022/05/06 00:52:04;;;;;;;6.47;4.83;;;8.60;99.90;;;;;;5052972;28;20179;-77
2022/05/06 00:54:33;;;;;;;8.47;5.00;;;8.50;99.90;;;;;;5053346;28;20176;-76
2022/05/06 00:57:00;;;;;;;5.53;4.60;;;8.50;99.90;;;;;;5035128;28;20199;-76
2022/05/06 00:59:26;;;;;;;6.50;4.70;;;8.50;99.90;;;;;;5053381;28;20174;-76
2022/05/06 01:01:52;;;;;;;5.57;4.63;;;8.50;99.90;;;;;;5052239;28;20547;-76
2022/05/06 01:04:17;;;;;;;6.93;4.90;;;8.40;99.90;;;;;;5053043;28;20202;-76
2022/05/06 01:06:45;;;;;;;7.27;4.93;;;8.40;99.90;;;;;;5052861;28;20230;-75
2022/05/06 01:09:16;;;;;;;7.10;5.00;;;8.30;99.90;;;;;;5035339;28;20600;-76
2022/05/06 01:11:42;;;;;;;10.47;4.97;;;8.30;99.90;;;;;;5052705;28;20210;-76
2022/05/06 01:14:07;;;;;;;6.87;5.53;;;8.30;99.90;;;;;;5052828;28;20172;-76
2022/05/06 01:16:34;;;;;;;7.70;4.87;;;8.30;99.90;;;;;;5052775;28;20199;-76
2022/05/06 01:19:01;;;;;;;10.33;5.10;;;8.20;99.90;;;;;;5052834;28;20172;-76
2022/05/06 01:21:27;;;;;;;10.37;5.23;;;8.20;99.90;;;;;;5035047;28;20221;-77
2022/05/06 01:23:53;;;;;;;6.73;5.20;;;8.20;99.90;;;;;;5052789;28;20194;-76
2022/05/06 01:26:18;;;;;;;9.60;5.20;;;8.10;99.90;;;;;;5034682;28;20196;-76
2022/05/06 01:28:45;;;;;;;5.80;5.23;;;8.10;99.90;;;;;;5034758;28;20206;-75
2022/05/06 01:31:20;;;;;;;7.07;5.63;;;8.00;99.90;;;;;;5034881;28;20210;-76
2022/05/06 01:33:54;;;;;;;6.83;5.10;;;8.00;99.90;;;;;;5053004;28;20242;-76
2022/05/06 01:36:27;;;;;;;6.83;5.60;;;8.00;99.90;;;;;;5052692;28;20282;-76
2022/05/06 01:38:58;;;;;;;7.97;4.90;;;7.90;99.90;;;;;;5052744;28;20156;-76
2022/05/06 01:41:27;;;;;;;6.83;5.23;;;7.90;99.90;;;;;;5052997;28;20191;-77
2022/05/06 01:43:59;;;;;;;6.77;5.03;;;7.80;99.90;;;;;;5034752;28;20272;-76
2022/05/06 01:46:27;;;;;;;9.17;5.53;;;7.80;99.90;;;;;;5034788;28;20304;-76
2022/05/06 01:48:55;;;;;;;5.50;4.90;;;7.70;99.90;;;;;;5052606;28;20176;-76
2022/05/06 01:51:23;;;;;;;6.20;5.07;;;7.70;99.90;;;;;;5034818;28;20211;-77
2022/05/06 01:53:49;;;;;;;5.97;5.10;;;7.70;99.90;;;;;;5053406;28;20215;-77
2022/05/06 01:56:18;;;;;;;6.77;5.03;;;7.70;99.90;;;;;;5052568;28;20249;-76
2022/05/06 01:58:44;;;;;;;8.63;5.67;;;7.70;99.90;;;;;;5052757;28;20537;-75
2022/05/06 02:01:11;;;;;;;5.27;4.60;;;7.60;99.90;;;;;;5052861;28;20176;-76
2022/05/06 02:06:21;;;;;;;6.73;5.50;;;7.60;99.90;;;;;;5052546;28;20320;-77
2022/05/06 02:08:47;;;;;;;6.93;5.13;;;7.50;99.90;;;;;;5052632;28;20649;-76
2022/05/06 02:11:12;;;;;;;7.03;5.40;;;7.50;99.90;;;;;;5034382;28;20301;-76
2022/05/06 02:13:38;;;;;;;6.53;5.30;;;7.50;99.90;;;;;;5054466;28;20180;-76
2022/05/06 02:16:04;;;;;;;6.97;5.37;;;7.50;99.90;;;;;;5056048;28;20218;-75
2022/05/06 02:18:29;;;;;;;5.93;4.70;;;7.50;99.90;;;;;;5056115;28;20168;-76
2022/05/06 02:20:57;;;;;;;7.87;5.47;;;7.40;99.90;;;;;;5056005;28;20180;-76
2022/05/06 02:23:23;;;;;;;6.80;5.67;;;7.40;99.90;;;;;;5038055;28;20278;-76
2022/05/06 02:25:49;;;;;;;7.27;5.30;;;7.30;99.90;;;;;;5055767;28;20637;-76
2022/05/06 02:28:15;;;;;;;6.33;5.10;;;7.30;99.90;;;;;;5037818;28;20197;-76
2022/05/06 02:33:25;;;;;;;6.63;4.90;;;7.30;99.90;;;;;;5056272;28;20167;-77
2022/05/06 02:35:52;;;;;;;7.70;4.87;;;7.30;99.90;;;;;;5055540;28;20195;-76
2022/05/06 02:38:18;;;;;;;6.23;4.80;;;7.30;99.90;;;;;;5037748;28;20210;-76
2022/05/06 02:40:44;;;;;;;6.57;5.17;;;7.20;99.90;;;;;;5037700;28;20253;-76
2022/05/06 02:43:10;;;;;;;8.10;5.23;;;7.20;99.90;;;;;;5055760;28;20616;-76
2022/05/06 02:45:35;;;;;;;7.90;5.20;;;7.10;99.90;;;;;;5055329;28;20290;-76
2022/05/06 02:48:02;;;;;;;5.80;4.90;;;7.10;99.90;;;;;;5037460;28;20633;-76
2022/05/06 02:50:28;;;;;;;7.23;5.13;;;7.10;99.90;;;;;;5055412;28;20227;-76
2022/05/06 02:52:53;;;;;;;6.00;5.37;;;7.20;99.90;;;;;;5037444;28;20215;-77
2022/05/06 02:55:20;;;;;;;7.90;5.47;;;7.00;99.90;;;;;;5037375;28;20195;-76
2022/05/06 02:57:45;;;;;;;7.83;5.00;;;7.00;99.90;;;;;;5037243;28;20183;-76
2022/05/06 03:00:12;;;;;;;5.83;4.37;;;7.00;99.90;;;;;;5055767;28;20171;-76
2022/05/06 03:02:38;;;;;;;6.87;5.00;;;6.90;99.90;;;;;;5055082;28;20274;-76
2022/05/06 03:05:04;;;;;;;6.57;5.30;;;6.90;99.90;;;;;;5055032;28;20211;-76
2022/05/06 03:07:29;;;;;;;8.93;5.17;;;6.80;99.90;;;;;;5054989;28;20164;-76
2022/05/06 03:09:55;;;;;;;7.83;5.10;;;6.80;99.90;;;;;;5037017;28;20566;-76
2022/05/06 03:12:29;;;;;;;7.77;5.40;;;6.80;99.90;;;;;;5055018;28;20198;-76
2022/05/06 03:14:55;;;;;;;7.40;5.87;;;6.80;99.90;;;;;;5054722;28;20155;-76
2022/05/06 03:17:21;;;;;;;7.07;4.83;;;6.70;99.90;;;;;;5054769;28;20186;-76
2022/05/06 03:19:46;;;;;;;11.47;4.80;;;6.80;99.90;;;;;;5055039;28;20171;-76
2022/05/06 03:22:15;;;;;;;6.53;4.90;;;6.80;99.90;;;;;;5054544;28;20254;-76
2022/05/06 03:24:41;;;;;;;7.57;5.10;;;6.70;99.90;;;;;;5053936;28;20242;-76
2022/05/06 03:27:59;;;;;;;5.93;5.33;;;6.70;99.90;;;;;;5054512;28;20527;-76
2022/05/06 03:29:52;;;;;;;8.80;5.13;;;6.60;99.90;;;;;;5054334;28;20203;-76
2022/05/06 03:32:18;;;;;;;7.90;5.37;;;6.60;99.90;;;;;;5054918;28;20183;-76
2022/05/06 03:34:44;;;;;;;6.57;4.90;;;6.50;99.90;;;;;;5054425;28;20633;-75
2022/05/06 03:37:09;;;;;;;8.53;5.13;;;6.60;99.90;;;;;;5054430;28;20199;-77
2022/05/06 03:39:35;;;;;;;8.17;5.40;;;6.50;99.90;;;;;;5055272;28;20178;-77
2022/05/06 03:42:01;;;;;;;6.37;5.17;;;6.50;99.90;;;;;;5036872;28;20576;-77
2022/05/06 03:44:26;;;;;;;9.50;5.30;;;6.50;99.90;;;;;;5036634;28;20172;-77
2022/05/06 03:46:52;;;;;;;7.30;5.30;;;6.50;99.90;;;;;;5053721;28;20586;-77
2022/05/06 03:49:17;;;;;;;7.73;4.97;;;6.50;99.90;;;;;;5036407;28;20653;-77
2022/05/06 03:51:47;;;;;;;8.80;5.03;;;6.50;99.90;;;;;;5054383;28;20577;-75
2022/05/06 03:54:13;;;;;;;7.20;5.40;;;6.50;99.90;;;;;;5036627;28;20225;-77
2022/05/06 03:56:38;;;;;;;5.50;4.63;;;6.40;99.90;;;;;;5036556;28;20192;-77
2022/05/06 03:59:04;;;;;;;7.67;4.90;;;6.40;99.90;;;;;;5081431;22;20239;-76
2022/05/06 04:01:30;;;;;;;7.73;5.20;;;6.40;99.90;;;;;;5057902;28;20209;-76
2022/05/06 04:03:56;;;;;;;7.57;5.13;;;6.30;99.90;;;;;;5039794;28;20179;-75
2022/05/06 04:06:21;;;;;;;6.47;4.90;;;6.30;99.90;;;;;;5057408;28;20533;-75
2022/05/06 04:08:47;;;;;;;6.93;5.43;;;6.20;99.90;;;;;;5057469;28;20198;-76
2022/05/06 04:11:13;;;;;;;6.17;4.77;;;6.20;99.90;;;;;;5040489;28;20715;-75
2022/05/06 04:13:39;;;;;;;6.87;5.27;;;6.20;99.90;;;;;;5059184;28;20526;-75
2022/05/06 04:16:06;;;;;;;7.67;5.50;;;6.20;99.90;;;;;;5059277;28;20178;-75
2022/05/06 04:18:32;;;;;;;6.63;4.80;;;6.20;99.90;;;;;;5058459;28;20188;-75
2022/05/06 04:23:42;;;;;;;6.03;4.43;;;6.10;99.90;;;;;;5060092;28;20217;-75
2022/05/06 04:26:12;;;;;;;7.00;5.17;;;6.10;99.90;;;;;;5059102;28;20179;-74
2022/05/06 04:28:39;;;;;;;5.43;4.90;;;6.20;99.90;;;;;;5059367;28;20198;-75
2022/05/06 04:31:05;;;;;;;6.10;5.07;;;6.20;99.90;;;;;;5059126;28;20191;-75
2022/05/06 04:33:32;;;;;;;6.97;4.57;;;6.20;99.90;;;;;;5041708;28;20637;-75
2022/05/06 04:35:59;;;;;;;7.33;4.80;;;6.20;99.90;;;;;;5058988;28;20171;-75
2022/05/06 04:38:28;;;;;;;5.80;5.00;;;6.20;99.90;;;;;;5040273;28;20527;-75
2022/05/06 04:40:55;;;;;;;7.50;5.20;;;6.20;99.90;;;;;;5058435;28;20171;-73
2022/05/06 04:43:21;;;;;;;6.40;4.73;;;6.10;99.90;;;;;;5042473;28;20270;-73
2022/05/06 04:45:49;;;;;;;6.00;4.90;;;6.10;99.90;;;;;;5061062;28;20167;-73
2022/05/06 04:48:15;;;;;;;7.90;5.10;;;6.10;99.90;;;;;;5060499;28;20257;-73
2022/05/06 04:50:44;;;;;;;6.93;5.37;;;6.10;99.90;;;;;;5042018;28;20199;-73
2022/05/06 04:53:10;;;;;;;5.10;4.60;;;6.20;99.90;;;;;;5042418;28;20178;-73
2022/05/06 04:55:38;;;;;;;6.17;5.30;;;6.20;99.90;;;;;;5060283;28;20172;-74
2022/05/06 04:58:04;;;;;;;7.13;5.53;;;6.20;99.90;;;;;;5042822;28;20294;-73
2022/05/06 05:00:30;;;;;;;9.13;5.33;;;6.30;99.90;;;;;;5041257;28;20521;-73
2022/05/06 05:02:56;;;;;;;7.57;5.13;;;6.20;99.90;;;;;;5041948;28;20254;-73
2022/05/06 05:05:21;;;;;;;6.07;4.90;;;6.20;99.90;;;;;;5059397;28;20627;-73
2022/05/06 05:07:47;;;;;;;7.03;5.33;;;6.30;99.90;;;;;;5059641;28;20234;-73
2022/05/06 05:10:13;;;;;;;7.83;5.47;;;6.30;99.90;;;;;;5042148;28;20254;-74
2022/05/06 05:12:38;;;;;;;9.53;5.20;;;6.40;99.90;;;;;;5058772;28;20167;-74
2022/05/06 05:15:05;;;;;;;8.70;5.37;;;6.40;99.90;;;;;;5057847;28;20251;-73
2022/05/06 05:17:30;;;;;;;8.83;6.23;;;6.40;99.90;;;;;;5057342;28;20171;-74
2022/05/06 05:19:56;;;;;;;5.57;4.97;;;6.40;99.90;;;;;;5057531;28;20183;-74
2022/05/06 05:22:22;;;;;;;7.67;5.30;;;6.40;99.90;;;;;;5057724;28;20179;-74
2022/05/06 05:24:47;;;;;;;6.23;5.53;;;6.50;99.90;;;;;;5039035;28;20308;-73
2022/05/06 05:27:13;;;;;;;6.37;4.70;;;6.50;99.90;;;;;;5058426;28;20540;-74
2022/05/06 05:29:40;;;;;;;6.13;5.27;;;6.50;99.90;;;;;;5058622;28;20617;-74
2022/05/06 05:32:06;;;;;;;5.30;4.53;;;6.60;99.90;;;;;;5058367;28;20238;-74
2022/05/06 05:34:32;;;;;;;7.73;5.10;;;6.70;99.90;;;;;;5057810;28;20195;-74
2022/05/06 05:36:57;;;;;;;5.80;4.83;;;6.70;99.90;;;;;;5040545;28;20553;-74
2022/05/06 05:39:23;;;;;;;7.17;5.07;;;6.80;99.90;;;;;;5038674;28;20673;-74
2022/05/06 05:41:48;;;;;;;7.20;5.67;;;6.80;99.90;;;;;;5039730;28;20273;-74
2022/05/06 05:49:56;;;;;;;6.47;5.07;;;7.00;99.90;;;;;;5028251;28;20229;-74
2022/05/06 05:52:21;;;;;;;7.10;4.97;;;7.10;99.90;;;;;;5064095;28;20163;-74
2022/05/06 05:54:47;;;;;;;7.30;5.43;;;7.10;99.90;;;;;;5045447;28;20163;-73
2022/05/06 05:57:12;;;;;;;9.40;5.83;;;7.20;99.90;;;;;;5063005;28;20236;-74
2022/05/06 05:59:39;;;;;;;9.77;6.47;;;7.30;99.90;;;;;;5062251;28;20211;-74
2022/05/06 06:02:06;;;;;;;7.47;5.67;;;7.40;99.90;;;;;;5045581;28;20195;-74
2022/05/06 06:04:32;;;;;;;9.50;6.40;;;7.50;99.90;;;;;;5045744;28;20175;-73
2022/05/06 06:06:58;;;;;;;9.37;6.97;;;7.50;99.90;;;;;;5042730;28;20199;-73
2022/05/06 06:09:24;;;;;;;10.30;7.23;;;7.60;99.90;;;;;;5059675;28;20199;-73
2022/05/06 06:11:49;;;;;;;10.80;8.33;;;7.70;99.90;;;;;;5059954;28;20279;-73
2022/05/06 06:14:16;;;;;;;15.20;8.93;;;7.80;99.90;;;;;;5060355;28;20203;-74
2022/05/06 06:16:42;;;;;;;12.67;9.03;;;7.90;99.90;;;;;;5059529;28;20171;-74
2022/05/06 06:19:07;;;;;;;16.77;11.03;;;8.00;99.90;;;;;;5058825;28;20203;-74
2022/05/06 06:21:33;;;;;;;16.23;11.50;;;8.20;99.90;;;;;;5058808;28;20187;-73
2022/05/06 06:23:59;;;;;;;17.40;11.57;;;8.30;99.90;;;;;;5041229;28;20179;-74
2022/05/06 06:26:24;;;;;;;14.83;11.93;;;8.40;99.90;;;;;;5041318;28;20195;-74
2022/05/06 06:28:50;;;;;;;19.23;12.47;;;8.50;99.90;;;;;;5059125;28;20203;-74
2022/05/06 06:31:15;;;;;;;17.03;12.13;;;8.70;99.90;;;;;;5059037;28;20260;-74
2022/05/06 06:33:41;;;;;;;18.13;12.50;;;8.80;99.90;;;;;;5041376;28;20274;-74
2022/05/06 06:36:08;;;;;;;18.77;13.53;;;8.90;99.90;;;;;;5059485;28;20199;-73
2022/05/06 06:38:34;;;;;;;19.77;14.23;;;9.00;99.90;;;;;;5058788;28;20187;-74
2022/05/06 06:40:59;;;;;;;24.77;14.20;;;9.20;99.90;;;;;;5059261;28;20188;-74
2022/05/06 06:43:25;;;;;;;20.50;13.37;;;9.20;99.90;;;;;;5040971;28;20262;-74
2022/05/06 06:45:51;;;;;;;18.80;13.53;;;9.40;99.90;;;;;;5058208;28;20238;-73
2022/05/06 06:48:16;;;;;;;17.50;13.33;;;9.50;99.90;;;;;;5058219;28;20613;-74
2022/05/06 06:50:42;;;;;;;18.57;14.40;;;9.60;99.90;;;;;;5039913;28;20699;-73
2022/05/06 06:53:08;;;;;;;21.63;16.10;;;9.70;99.90;;;;;;5039734;28;20222;-74
2022/05/06 06:55:34;;;;;;;21.83;15.23;;;9.80;99.90;;;;;;5040247;28;20172;-74
2022/05/06 06:57:59;;;;;;;25.07;16.37;;;10.00;99.90;;;;;;5057949;28;20196;-74
2022/05/06 07:00:25;;;;;;;24.23;17.13;;;10.10;99.90;;;;;;5056776;28;20225;-74
2022/05/06 07:02:51;;;;;;;22.30;16.43;;;10.10;99.90;;;;;;5058063;28;20172;-74
2022/05/06 07:05:17;;;;;;;22.53;16.17;;;10.20;99.90;;;;;;5056999;28;20168;-74
2022/05/06 07:13:11;;;;;;;28.80;15.13;;;10.60;99.90;;;;;;5056767;28;20239;-74
2022/05/06 07:15:37;;;;;;;19.83;15.43;;;10.80;99.90;;;;;;5056930;28;20168;-74
2022/05/06 07:18:02;;;;;;;37.53;16.13;;;11.00;99.90;;;;;;5038787;28;20202;-74
2022/05/06 07:20:28;;;;;;;35.67;16.50;;;11.10;99.90;;;;;;5057674;28;20566;-74
2022/05/06 07:22:54;;;;;;;25.20;15.93;;;11.20;99.90;;;;;;5057478;28;20197;-74
2022/05/06 07:25:20;;;;;;;22.33;14.97;;;11.40;99.90;;;;;;5058226;28;20206;-74
2022/05/06 07:27:46;;;;;;;20.33;14.83;;;11.40;99.90;;;;;;5058080;28;20255;-74
2022/05/06 07:30:12;;;;;;;22.13;14.30;;;11.50;99.90;;;;;;5058044;28;20197;-74
2022/05/06 07:32:37;;;;;;;25.33;15.23;;;11.60;99.90;;;;;;5058281;28;20178;-74
2022/05/06 07:35:04;;;;;;;18.07;13.50;;;11.70;99.90;;;;;;5040684;28;20172;-74
2022/05/06 07:37:33;;;;;;;18.93;13.70;;;11.80;99.90;;;;;;5057986;28;20168;-74
2022/05/06 07:40:00;;;;;;;18.90;12.50;;;11.90;99.90;;;;;;5059017;28;20179;-74
2022/05/06 07:42:26;;;;;;;20.13;12.73;;;12.00;99.90;;;;;;5040548;28;20175;-74
2022/05/06 07:44:51;;;;;;;20.37;14.07;;;12.00;99.90;;;;;;5058258;28;20175;-74
2022/05/06 07:47:17;;;;;;;20.90;13.80;;;12.10;99.90;;;;;;5058758;28;20711;-74
2022/05/06 07:49:42;;;;;;;20.83;14.33;;;12.30;99.90;;;;;;5058220;28;20229;-74
2022/05/06 07:52:08;;;;;;;22.10;14.30;;;12.40;99.90;;;;;;5059067;28;20178;-75
2022/05/06 07:54:33;;;;;;;17.60;14.20;;;12.50;99.90;;;;;;5040491;28;20621;-74
2022/05/06 07:56:59;;;;;;;18.27;12.57;;;12.70;99.90;;;;;;5040818;28;20202;-75
2022/05/06 07:59:25;;;;;;;18.77;13.33;;;12.80;99.90;;;;;;5058241;28;20207;-75
2022/05/06 08:04:35;;;;;;;22.67;14.43;;;13.00;99.90;;;;;;5057669;28;20220;-74
2022/05/06 08:07:02;;;;;;;19.70;13.73;;;13.30;59.10;;;;;;5041147;28;20175;-75
2022/05/06 08:09:27;;;;;;;20.67;13.13;;;13.50;1.00;;;;;;5041538;28;20199;-74
2022/05/06 08:11:53;;;;;;;19.47;12.37;;;13.60;1.00;;;;;;5041253;28;20620;-74
2022/05/06 08:14:19;;;;;;;20.47;13.00;;;13.70;1.00;;;;;;5057971;28;20235;-74
2022/05/06 08:16:46;;;;;;;18.57;12.17;;;13.80;1.00;;;;;;5058025;28;20191;-74
2022/05/06 08:19:12;;;;;;;20.03;13.27;;;13.90;1.00;;;;;;5039901;28;20294;-75
2022/05/06 08:21:39;;;;;;;18.47;13.20;;;14.00;99.90;;;;;;5039013;28;20187;-74
2022/05/06 08:24:05;;;;;;;19.97;13.10;;;14.10;99.90;;;;;;5038374;28;20190;-74
2022/05/06 08:26:31;;;;;;;17.63;12.83;;;14.20;99.90;;;;;;5038818;28;20558;-74
2022/05/06 08:28:56;;;;;;;18.87;13.60;;;14.40;99.90;;;;;;5038603;28;20196;-74
2022/05/06 08:31:22;;;;;;;17.67;13.97;;;14.40;1.00;;;;;;5057777;28;20202;-74
2022/05/06 08:33:47;;;;;;;29.40;16.17;;;14.50;99.90;;;;;;5057699;28;20641;-74
2022/05/06 08:36:14;;;;;;;15.93;12.90;;;14.70;8.10;;;;;;5038495;28;20197;-74
2022/05/06 08:38:39;;;;;;;18.40;13.33;;;14.90;99.90;;;;;;5056584;28;20187;-74
2022/05/06 08:41:05;;;;;;;15.40;12.07;;;15.00;1.00;;;;;;5056383;28;20176;-74
2022/05/06 08:43:32;;;;;;;16.27;13.03;;;15.20;99.90;;;;;;5038175;28;20557;-74
2022/05/06 08:51:31;;;;;;;18.63;12.87;;;15.20;1.00;;;;;;5056265;28;20229;-74
2022/05/06 08:53:57;;;;;;;18.73;11.73;;;15.30;99.90;;;;;;5056393;28;20175;-74
2022/05/06 08:56:22;;;;;;;20.93;12.23;;;15.30;1.00;;;;;;5038063;28;20278;-74
2022/05/06 08:58:48;;;;;;;19.17;12.47;;;15.50;43.20;;;;;;5055096;28;20204;-74
2022/05/06 09:01:16;;;;;;;21.03;12.70;;;15.60;99.90;;;;;;5056729;28;20180;-75
2022/05/06 09:03:47;;;;;;;20.73;13.50;;;15.90;1.00;;;;;;5056971;28;20179;-75
2022/05/06 09:06:20;;;;;;;24.30;11.67;;;15.80;99.90;;;;;;5056717;28;20164;-74
2022/05/06 09:08:48;;;;;;;18.93;11.73;;;15.90;99.90;;;;;;5040197;28;20680;-73
2022/05/06 09:11:17;;;;;;;17.90;12.20;;;16.00;99.90;;;;;;5057760;28;20213;-73
2022/05/06 09:13:51;;;;;;;19.53;11.97;;;16.00;99.90;;;;;;5057780;28;20247;-74
2022/05/06 09:16:39;;;;;;;17.73;12.27;;;16.00;1.00;;;;;;5040668;28;20159;-74
2022/05/06 09:19:12;;;;;;;20.47;13.60;;;16.10;99.90;;;;;;5040741;28;20766;-74
2022/05/06 09:21:39;;;;;;;24.23;14.57;;;16.10;99.90;;;;;;5040128;28;20211;-74
2022/05/06 09:24:20;;;;;;;24.87;15.97;;;16.10;1.00;;;;;;5042967;28;20621;-74
2022/05/06 09:26:57;;;;;;;27.60;16.90;;;16.20;99.90;;;;;;5044240;28;20195;-74
2022/05/06 09:29:30;;;;;;;29.87;16.23;;;16.20;99.90;;;;;;5043051;28;20199;-73
2022/05/06 09:32:14;;;;;;;23.47;16.03;;;16.50;99.90;;;;;;5061370;28;20256;-73
2022/05/06 09:34:40;;;;;;;26.80;18.00;;;16.60;1.00;;;;;;5043546;28;20175;-73
2022/05/06 09:37:06;;;;;;;31.17;19.87;;;16.70;99.90;;;;;;5060657;28;20232;-73
2022/05/06 09:39:32;;;;;;;28.67;17.23;;;16.90;99.90;;;;;;5061463;28;20234;-73
2022/05/06 09:42:04;;;;;;;27.33;18.10;;;17.00;99.90;;;;;;5061225;28;20180;-73
2022/05/06 09:44:30;;;;;;;27.27;16.77;;;17.10;1.00;;;;;;5043513;28;20246;-73
2022/05/06 09:47:12;;;;;;;30.07;17.73;;;17.10;1.00;;;;;;5042812;28;20177;-73
2022/05/06 09:49:42;;;;;;;28.83;17.37;;;17.20;99.90;;;;;;5043511;28;20210;-73
2022/05/06 09:52:09;;;;;;;43.30;21.27;;;17.30;99.90;;;;;;5060393;28;20176;-73
2022/05/06 09:54:35;;;;;;;33.67;19.23;;;17.50;1.00;;;;;;5059375;28;20199;-74
2022/05/06 09:57:05;;;;;;;32.87;18.27;;;17.60;1.00;;;;;;5040791;28;20179;-75
2022/05/06 09:59:31;;;;;;;22.70;17.17;;;17.70;1.00;;;;;;5040700;22;20226;-75
2022/05/06 10:01:56;;;;;;;26.27;17.10;;;17.70;99.90;;;;;;4974185;28;20262;-75
2022/05/06 10:04:22;;;;;;;23.53;15.77;;;17.80;99.90;;;;;;4974619;28;20265;-75
2022/05/06 10:06:49;;;;;;;27.50;17.93;;;17.80;1.00;;;;;;4974095;28;20473;-74
2022/05/06 10:09:21;;;;;;;27.00;17.23;;;17.90;99.90;;;;;;4973497;28;20190;-74
2022/05/06 10:11:48;;;;;;;26.53;18.53;;;17.80;99.90;;;;;;4972720;28;20605;-74
2022/05/06 10:14:15;;;;;;;23.07;16.23;;;17.80;99.90;;;;;;4972801;28;20648;-73
2022/05/06 10:16:41;;;;;;;20.27;15.23;;;18.00;99.90;;;;;;4972790;28;20174;-75
2022/05/06 10:19:39;;;;;;;27.33;15.93;;;18.00;99.90;;;;;;4972691;28;20521;-75
2022/05/06 10:22:05;;;;;;;20.53;14.40;;;18.10;99.90;;;;;;4930795;28;20194;-75
2022/05/06 10:24:39;;;;;;;22.93;15.83;;;18.20;99.90;;;;;;4973852;28;20206;-75
2022/05/06 10:32:25;;;;;;;22.10;15.60;;;18.20;99.90;;;;;;4972560;28;20212;-75
2022/05/06 10:33:12;;;;;;;23.43;14.83;;;18.50;99.90;;;;;;4973875;28;20232;-75
2022/05/06 10:35:48;;;;;;;17.77;13.67;;;18.60;99.90;;;;;;4973887;28;20166;-75
2022/05/06 10:38:24;;;;;;;24.93;15.93;;;18.50;11.80;;;;;;4973717;28;20165;-75
2022/05/06 10:41:02;;;;;;;23.87;15.30;;;18.60;99.90;;;;;;4973846;28;20660;-75
2022/05/06 10:43:40;;;;;;;20.67;14.83;;;18.60;99.90;;;;;;4973567;28;20193;-75
2022/05/06 10:46:06;;;;;;;18.17;13.00;;;18.70;99.90;;;;;;4973497;28;20583;-75
2022/05/06 10:48:32;;;;;;;19.93;13.10;;;18.70;1.00;;;;;;4973834;28;20201;-75
2022/05/06 10:51:27;;;;;;;18.43;12.77;;;18.70;1.00;;;;;;4973400;28;20582;-75
2022/05/06 10:53:54;;;;;;;22.77;16.13;;;18.90;1.00;;;;;;4973655;28;20155;-75
2022/05/06 10:56:19;;;;;;;23.67;16.30;;;19.00;3.40;;;;;;4972079;28;20232;-75
2022/05/06 10:58:45;;;;;;;19.97;15.10;;;19.00;1.00;;;;;;4973345;28;20178;-75
2022/05/06 11:01:17;;;;;;;20.20;16.07;;;19.00;42.10;;;;;;4973141;28;20210;-75
2022/05/06 11:03:52;;;;;;;22.87;15.70;;;19.10;79.40;;;;;;4973540;28;20182;-76
2022/05/06 11:06:22;;;;;;;18.23;14.73;;;19.10;1.00;;;;;;4972008;28;20238;-75
2022/05/06 11:08:47;;;;;;;20.63;15.00;;;18.90;99.90;;;;;;4973353;28;20188;-75
2022/05/06 11:11:19;;;;;;;22.07;16.33;;;18.80;99.90;;;;;;4973022;28;20246;-76
2022/05/06 11:13:47;;;;;;;20.47;14.47;;;18.80;99.90;;;;;;4972165;28;20536;-76
2022/05/06 11:16:14;;;;;;;18.67;13.50;;;18.70;99.90;;;;;;4973271;28;20189;-75
2022/05/06 11:18:48;;;;;;;19.37;13.63;;;18.70;99.90;;;;;;4973038;28;20177;-76
2022/05/06 11:21:20;;;;;;;17.10;13.47;;;18.60;99.90;;;;;;4972963;28;20194;-76
2022/05/06 11:23:46;;;;;;;18.63;14.37;;;18.70;27.50;;;;;;4973019;28;20262;-75
2022/05/06 11:26:31;;;;;;;19.83;15.23;;;18.70;1.00;;;;;;4971832;28;20273;-76
2022/05/06 11:29:04;;;;;;;17.63;13.27;;;18.70;1.00;;;;;;4972839;28;20170;-76
2022/05/06 11:31:29;;;;;;;24.53;12.87;;;18.80;12.50;;;;;;4972702;28;20194;-76
2022/05/06 11:34:05;;;;;;;16.57;13.17;;;19.00;1.00;;;;;;4972708;28;20170;-75
2022/05/06 11:36:32;;;;;;;19.17;12.83;;;19.10;1.00;;;;;;4971459;28;20170;-75
2022/05/06 11:38:57;;;;;;;16.83;11.90;;;19.20;1.00;;;;;;4972947;28;20205;-76
2022/05/06 11:41:24;;;;;;;18.20;12.40;;;19.40;1.00;;;;;;4972868;28;20182;-76
2022/05/06 11:43:50;;;;;;;18.83;12.87;;;19.40;1.00;;;;;;4971421;28;20268;-76
2022/05/06 11:49:00;;;;;;;17.83;13.47;;;19.70;1.00;;;;;;4973356;28;20173;-75
2022/05/06 11:51:31;;;;;;;15.20;12.20;;;19.70;1.00;;;;;;4972699;28;20631;-75
2022/05/06 11:53:58;;;;;;;18.90;11.83;;;19.80;1.00;;;;;;4972814;28;20668;-76
2022/05/06 11:56:26;;;;;;;14.67;11.93;;;19.90;1.00;;;;;;4971440;28;20171;-76
2022/05/06 11:58:54;;;;;;;16.17;11.43;;;19.90;1.00;;;;;;4972592;28;20228;-76
2022/05/06 12:01:29;;;;;;;17.30;12.50;;;19.90;1.00;;;;;;4972334;28;20656;-76
2022/05/06 12:04:02;;;;;;;13.50;11.30;;;19.90;1.00;;;;;;4972817;28;20173;-76
2022/05/06 12:06:28;;;;;;;14.77;10.40;;;19.90;1.00;;;;;;4972321;28;20202;-76
2022/05/06 12:09:29;;;;;;;16.47;12.17;;;19.90;1.00;;;;;;4972272;28;20198;-76
2022/05/06 12:12:04;;;;;;;13.80;10.70;;;20.00;1.00;;;;;;4913005;29;20362;-76
2022/05/06 12:14:29;;;;;;;16.80;11.23;;;20.00;1.00;;;;;;4959750;28;20182;-76
2022/05/06 12:17:03;;;;;;;18.57;11.30;;;20.20;1.00;;;;;;4972195;28;20539;-76
2022/05/06 12:19:46;;;;;;;21.20;14.17;;;20.30;1.00;;;;;;4970822;28;20200;-76
2022/05/06 12:22:22;;;;;;;15.00;11.37;;;20.30;1.00;;;;;;4972154;28;20181;-76
2022/05/06 12:24:55;;;;;;;18.07;12.93;;;20.30;1.00;;;;;;4972081;28;20173;-76
2022/05/06 12:27:32;;;;;;;15.30;12.50;;;20.50;1.00;;;;;;4970844;28;20170;-75
2022/05/06 12:29:58;;;;;;;18.93;13.60;;;20.40;1.00;;;;;;4972035;28;20190;-76
2022/05/06 12:32:24;;;;;;;20.77;14.60;;;20.40;1.00;;;;;;4971974;28;20704;-76
2022/05/06 12:35:07;;;;;;;20.47;14.40;;;20.30;1.00;;;;;;4971915;28;20217;-76
2022/05/06 12:37:33;;;;;;;17.00;14.10;;;20.50;1.00;;;;;;4970623;28;20182;-76
2022/05/06 12:39:59;;;;;;;19.23;13.63;;;20.60;1.00;;;;;;4971806;28;20194;-76
2022/05/06 12:42:25;;;;;;;18.43;13.40;;;20.70;1.00;;;;;;4970652;28;20186;-76
2022/05/06 12:44:51;;;;;;;18.97;13.80;;;20.60;1.00;;;;;;4972387;28;20174;-76
2022/05/06 12:50:09;;;;;;;21.00;16.33;;;21.00;1.00;;;;;;4971827;28;20213;-75
2022/05/06 12:52:36;;;;;;;19.23;14.50;;;20.90;1.00;;;;;;4970548;28;20220;-76
2022/05/06 12:55:03;;;;;;;20.50;14.57;;;20.90;1.00;;;;;;4971746;28;20229;-75
2022/05/06 12:57:29;;;;;;;17.47;12.93;;;21.00;1.00;;;;;;4970828;28;20175;-76
2022/05/06 12:59:55;;;;;;;20.00;14.10;;;21.10;1.00;;;;;;4971632;28;20213;-76
2022/05/06 13:02:21;;;;;;;20.00;15.77;;;21.00;1.00;;;;;;4971521;28;20221;-76
2022/05/06 13:04:46;;;;;;;19.43;13.43;;;21.20;1.00;;;;;;4971571;28;20181;-76
2022/05/06 13:07:16;;;;;;;18.47;12.90;;;21.10;1.00;;;;;;4970267;28;20178;-76
2022/05/06 13:09:41;;;;;;;17.67;14.23;;;21.30;1.00;;;;;;4971439;28;20201;-77
2022/05/06 13:12:09;;;;;;;16.33;12.83;;;21.20;1.00;;;;;;4971435;28;20206;-77
2022/05/06 13:14:35;;;;;;;17.97;13.53;;;21.30;1.00;;;;;;4971843;28;20175;-77
2022/05/06 13:17:00;;;;;;;17.17;12.83;;;21.30;1.00;;;;;;4971557;28;20174;-76
2022/05/06 13:19:29;;;;;;;16.20;13.87;;;21.20;1.00;;;;;;4971313;28;20568;-76
2022/05/06 13:21:55;;;;;;;19.30;14.63;;;21.10;1.00;;;;;;4971338;28;20183;-76